createdAt,value
2023-01-15T00:02:05.952Z,93557
2023-01-15T00:05:31.484Z,93549
2023-01-15T00:08:57.126Z,93531
2023-01-15T00:12:23.223Z,93515
2023-01-15T00:15:49.197Z,93519
2023-01-15T00:19:15.180Z,93508
2023-01-15T00:22:43.181Z,93491
2023-01-15T00:26:10.072Z,93499
2023-01-15T00:29:36.562Z,93488
2023-01-15T00:33:04.549Z,93478
2023-01-15T00:36:30.833Z,93484
2023-01-15T00:39:58.229Z,93474
2023-01-15T00:43:26.763Z,93467
2023-01-15T00:46:53.582Z,93469
2023-01-15T00:50:20.107Z,93467
2023-01-15T00:53:47.608Z,93453
2023-01-15T00:57:15.991Z,93455
2023-01-15T01:00:42.745Z,93451
2023-01-15T01:04:09.440Z,93447
2023-01-15T01:07:37.408Z,93436
2023-01-15T01:11:04.109Z,93432
2023-01-15T01:14:31.215Z,93431
2023-01-15T01:17:57.219Z,93424
2023-01-15T01:21:23.282Z,93422
2023-01-15T01:24:50.314Z,93438
2023-01-15T01:28:16.291Z,93420
2023-01-15T01:31:42.302Z,93410
2023-01-15T01:35:09.439Z,93415
2023-01-15T01:38:36.509Z,93407
2023-01-15T01:42:02.833Z,93414
2023-01-15T01:45:29.025Z,93422
2023-01-15T01:48:54.463Z,93401
2023-01-15T01:52:20.727Z,93389
2023-01-15T01:55:46.455Z,93372
2023-01-15T01:59:12.408Z,93375
2023-01-15T02:02:38.219Z,93369
2023-01-15T02:06:03.927Z,93365
2023-01-15T02:09:29.640Z,93347
2023-01-15T02:12:55.692Z,93360
2023-01-15T02:16:21.397Z,93354
2023-01-15T02:19:47.374Z,93350
2023-01-15T02:23:12.988Z,93350
2023-01-15T02:26:39.436Z,93344
2023-01-15T02:30:05.305Z,93348
2023-01-15T02:33:30.962Z,93346
2023-01-15T02:36:56.828Z,93346
2023-01-15T02:40:22.377Z,93334
2023-01-15T02:43:47.781Z,93335
2023-01-15T02:47:13.618Z,93319
2023-01-15T02:50:39.453Z,93321
2023-01-15T02:54:04.920Z,93303
2023-01-15T02:57:30.742Z,93303
2023-01-15T03:00:57.048Z,93302
2023-01-15T03:04:22.583Z,93296
2023-01-15T03:07:48.223Z,93299
2023-01-15T03:11:14.349Z,93294
2023-01-15T03:14:39.853Z,93300
2023-01-15T03:18:05.609Z,93297
2023-01-15T03:21:31.577Z,93289
2023-01-15T03:24:57.079Z,93297
2023-01-15T03:28:23.335Z,93288
2023-01-15T03:31:49.091Z,93282
2023-01-15T03:35:14.898Z,93290
2023-01-15T03:38:40.464Z,93283
2023-01-15T03:42:06.193Z,93288
2023-01-15T03:45:31.884Z,93290
2023-01-15T03:48:57.400Z,93297
2023-01-15T03:52:23.161Z,93285
2023-01-15T03:55:48.893Z,93282
2023-01-15T03:59:15.006Z,93283
2023-01-15T04:02:40.852Z,93277
2023-01-15T04:06:06.506Z,93280
2023-01-15T04:09:32.116Z,93264
2023-01-15T04:12:58.693Z,93277
2023-01-15T04:16:25.244Z,93274
2023-01-15T04:19:51.005Z,93276
2023-01-15T04:23:16.750Z,93277
2023-01-15T04:26:42.553Z,93274
2023-01-15T04:30:08.206Z,93280
2023-01-15T04:33:33.880Z,93269
2023-01-15T04:36:59.624Z,93271
2023-01-15T04:40:25.585Z,93266
2023-01-15T04:43:51.461Z,93268
2023-01-15T04:47:17.333Z,93267
2023-01-15T04:50:43.469Z,93265
2023-01-15T04:54:09.034Z,93267
2023-01-15T04:57:35.041Z,93256
2023-01-15T05:01:01.037Z,93263
2023-01-15T05:04:26.894Z,93264
2023-01-15T05:07:53.765Z,93279
2023-01-15T05:11:19.661Z,93280
2023-01-15T05:14:45.412Z,93269
2023-01-15T05:18:11.558Z,93261
2023-01-15T05:21:37.071Z,93268
2023-01-15T05:25:02.493Z,93287
2023-01-15T05:28:27.926Z,93306
2023-01-15T05:31:53.458Z,93306
2023-01-15T05:35:18.888Z,93317
2023-01-15T05:38:44.265Z,93326
2023-01-15T05:42:09.800Z,93321
2023-01-15T05:45:35.203Z,93333
2023-01-15T05:49:00.581Z,93328
2023-01-15T05:52:25.953Z,93322
2023-01-15T05:55:51.540Z,93324
2023-01-15T05:59:17.182Z,93337
2023-01-15T06:02:42.823Z,93354
2023-01-15T06:06:08.213Z,93361
2023-01-15T06:09:33.647Z,93367
2023-01-15T06:12:59.139Z,93361
2023-01-15T06:16:24.741Z,93369
2023-01-15T06:19:50.295Z,93395
2023-01-15T06:23:15.858Z,93398
2023-01-15T06:26:41.421Z,93384
2023-01-15T06:30:07.194Z,93388
2023-01-15T06:33:32.759Z,93393
2023-01-15T06:36:58.096Z,93390
2023-01-15T06:40:23.568Z,93385
2023-01-15T06:43:48.945Z,93403
2023-01-15T06:47:14.387Z,93413
2023-01-15T06:50:40.018Z,93408
2023-01-15T06:54:05.658Z,93416
2023-01-15T06:57:31.135Z,93412
2023-01-15T07:00:56.901Z,93425
2023-01-15T07:04:22.547Z,93438
2023-01-15T07:07:48.460Z,93444
2023-01-15T07:11:14.068Z,93447
2023-01-15T07:14:39.894Z,93440
2023-01-15T07:18:07.269Z,93449
2023-01-15T07:21:33.956Z,93452
2023-01-15T07:24:59.787Z,93463
2023-01-15T07:28:25.530Z,93473
2023-01-15T07:32:02.428Z,93496
2023-01-15T07:35:28.116Z,93505
2023-01-15T07:38:54.163Z,93501
2023-01-15T07:42:20.086Z,93496
2023-01-15T07:45:45.661Z,93513
2023-01-15T07:49:11.264Z,93530
2023-01-15T07:52:36.517Z,93530
2023-01-15T07:56:01.777Z,93527
2023-01-15T07:59:33.903Z,93518
2023-01-15T08:02:59.198Z,93530
2023-01-15T08:06:24.481Z,93539
2023-01-15T08:09:50.224Z,93548
2023-01-15T08:13:15.568Z,93535
2023-01-15T08:16:42.688Z,93534
2023-01-15T08:20:08.071Z,93534
2023-01-15T08:23:34.064Z,93551
2023-01-15T08:27:00.209Z,93558
2023-01-15T08:30:25.650Z,93565
2023-01-15T08:33:50.840Z,93560
2023-01-15T08:37:16.133Z,93561
2023-01-15T08:40:41.398Z,93577
2023-01-15T08:44:06.686Z,93561
2023-01-15T08:47:32.701Z,93573
2023-01-15T08:50:57.850Z,93582
2023-01-15T08:54:42.726Z,93580
2023-01-15T08:58:08.311Z,93587
2023-01-15T09:01:33.983Z,93587
2023-01-15T09:05:01.096Z,93595
2023-01-15T09:08:26.317Z,93596
2023-01-15T09:11:51.644Z,93603
2023-01-15T09:15:16.935Z,93600
2023-01-15T09:18:42.180Z,93605
2023-01-15T09:22:07.456Z,93609
2023-01-15T09:25:32.727Z,93615
2023-01-15T09:28:58.091Z,93623
2023-01-15T09:32:23.361Z,93620
2023-01-15T09:35:48.632Z,93616
2023-01-15T09:39:13.947Z,93628
2023-01-15T09:42:39.362Z,93630
2023-01-15T09:46:04.753Z,93637
2023-01-15T09:49:30.063Z,93643
2023-01-15T09:52:57.088Z,93656
2023-01-15T09:56:22.887Z,93662
2023-01-15T09:59:48.150Z,93663
2023-01-15T10:03:13.430Z,93665
2023-01-15T10:06:38.636Z,93666
2023-01-15T10:10:03.875Z,93667
2023-01-15T10:13:29.485Z,93659
2023-01-15T10:16:54.772Z,93662
2023-01-15T10:20:20.043Z,93673
2023-01-15T10:23:45.298Z,93678
2023-01-15T10:27:10.541Z,93679
2023-01-15T10:30:35.822Z,93671
2023-01-15T10:34:01.297Z,93684
2023-01-15T10:37:26.739Z,93684
2023-01-15T10:40:52.240Z,93683
2023-01-15T10:44:17.750Z,93674
2023-01-15T10:47:43.016Z,93676
2023-01-15T10:51:08.543Z,93679
2023-01-15T10:54:33.738Z,93686
2023-01-15T10:58:09.694Z,93682
2023-01-15T11:01:24.396Z,93677
2023-01-15T11:04:49.535Z,93677
2023-01-15T11:08:48.402Z,93677
2023-01-15T11:11:40.540Z,93682
2023-01-15T11:15:05.785Z,93685
2023-01-15T11:18:30.994Z,93690
2023-01-15T11:21:56.399Z,93673
2023-01-15T11:25:21.756Z,93685
2023-01-15T11:28:47.139Z,93697
2023-01-15T11:32:12.569Z,93693
2023-01-15T11:35:37.954Z,93683
2023-01-15T11:39:03.262Z,93683
2023-01-15T11:42:28.540Z,93686
2023-01-15T11:45:53.931Z,93694
2023-01-15T11:49:19.187Z,93699
2023-01-15T11:52:44.456Z,93691
2023-01-15T11:56:09.745Z,93687
2023-01-15T11:59:36.528Z,93685
2023-01-15T12:03:00.281Z,93696
2023-01-15T12:06:25.519Z,93696
2023-01-15T12:09:50.759Z,93694
2023-01-15T12:13:16.036Z,93708
2023-01-15T12:16:41.327Z,93721
2023-01-15T12:20:06.605Z,93719
2023-01-15T12:23:31.888Z,93721
2023-01-15T12:26:57.152Z,93727
2023-01-15T12:30:22.403Z,93737
2023-01-15T12:33:47.628Z,93740
2023-01-15T12:37:12.877Z,93716
2023-01-15T12:40:38.101Z,93711
2023-01-15T12:44:03.560Z,93729
2023-01-15T12:47:28.799Z,93718
2023-01-15T12:50:54.069Z,93716
2023-01-15T12:54:19.316Z,93723
2023-01-15T12:57:44.540Z,93700
2023-01-15T13:01:09.869Z,93694
2023-01-15T13:04:35.029Z,93701
2023-01-15T13:08:00.273Z,93713
2023-01-15T13:11:25.525Z,93704
2023-01-15T13:14:50.778Z,93715
2023-01-15T13:18:16.001Z,93709
2023-01-15T13:21:41.235Z,93712
2023-01-15T13:25:06.474Z,93698
2023-01-15T13:28:31.707Z,93695
2023-01-15T13:31:56.955Z,93699
2023-01-15T13:35:22.199Z,93709
2023-01-15T13:38:47.428Z,93717
2023-01-15T13:42:12.679Z,93723
2023-01-15T13:45:37.967Z,93728
2023-01-15T13:49:03.142Z,93734
2023-01-15T13:52:28.398Z,93715
2023-01-15T13:55:53.665Z,93742
2023-01-15T13:59:18.902Z,93735
2023-01-15T14:02:44.173Z,93738
2023-01-15T14:06:09.413Z,93739
2023-01-15T14:09:34.686Z,93736
2023-01-15T14:12:59.914Z,93731
2023-01-15T14:16:25.158Z,93751
2023-01-15T14:19:50.362Z,93743
2023-01-15T14:23:15.605Z,93753
2023-01-15T14:26:40.861Z,93746
2023-01-15T14:30:06.120Z,93756
2023-01-15T15:06:22.814Z,93782
2023-01-15T15:09:48.055Z,93777
2023-01-15T15:13:13.305Z,93776
2023-01-15T15:16:38.622Z,93785
2023-01-15T15:20:03.783Z,93790
2023-01-15T15:23:29.014Z,93784
2023-01-15T15:26:54.267Z,93804
2023-01-15T15:30:19.506Z,93802
2023-01-15T15:33:44.745Z,93814
2023-01-15T15:37:09.990Z,93824
2023-01-15T15:40:35.208Z,93819
2023-01-15T15:44:00.480Z,93820
2023-01-15T15:47:25.706Z,93830
2023-01-15T15:50:50.952Z,93833
2023-01-15T15:54:16.196Z,93830
2023-01-15T15:57:41.432Z,93839
2023-01-15T16:01:06.751Z,93829
2023-01-15T16:04:31.918Z,93829
2023-01-15T16:07:57.172Z,93839
2023-01-15T16:11:22.396Z,93842
2023-01-15T16:14:47.643Z,93855
2023-01-15T16:18:12.895Z,93838
2023-01-15T16:21:38.160Z,93850
2023-01-15T16:25:03.402Z,93854
2023-01-15T16:28:28.646Z,93851
2023-01-15T16:31:53.897Z,93842
2023-01-15T16:35:19.170Z,93851
2023-01-15T16:38:44.393Z,93855
2023-01-15T16:42:09.639Z,93861
2023-01-15T16:45:34.896Z,93846
2023-01-15T16:49:01.983Z,93835
2023-01-15T16:52:25.371Z,93850
2023-01-15T16:55:50.647Z,93855
2023-01-15T16:59:15.896Z,93838
2023-01-15T17:02:41.117Z,93851
2023-01-15T17:06:06.361Z,93859
2023-01-15T17:09:31.595Z,93855
2023-01-15T17:12:56.833Z,93870
2023-01-15T17:16:22.081Z,93862
2023-01-15T17:19:47.324Z,93856
2023-01-15T17:23:12.604Z,93859
2023-01-15T17:26:37.884Z,93861
2023-01-15T17:30:03.214Z,93865
2023-01-15T17:33:28.500Z,93852
2023-01-15T17:36:53.798Z,93851
2023-01-15T17:40:19.170Z,93860
2023-01-15T17:43:44.446Z,93855
2023-01-15T17:47:09.921Z,93854
2023-01-15T17:50:35.157Z,93857
2023-01-15T17:54:00.441Z,93841
2023-01-15T17:57:25.776Z,93853
2023-01-15T18:00:51.072Z,93864
2023-01-15T18:04:16.408Z,93864
2023-01-15T18:07:41.686Z,93839
2023-01-15T18:11:06.986Z,93846
2023-01-15T18:14:32.364Z,93849
2023-01-15T18:17:57.552Z,93853
2023-01-15T18:21:22.847Z,93841
2023-01-15T18:24:48.125Z,93822
2023-01-15T18:28:13.481Z,93819
2023-01-15T18:31:38.792Z,93821
2023-01-15T18:35:04.031Z,93822
2023-01-15T18:38:29.385Z,93807
2023-01-15T18:41:54.667Z,93798
2023-01-15T18:45:20.012Z,93806
2023-01-15T18:48:45.277Z,93794
2023-01-15T18:52:10.555Z,93803
2023-01-15T18:55:35.859Z,93800
2023-01-15T18:59:01.070Z,93797
2023-01-15T19:02:30.221Z,93799
2023-01-15T19:05:55.520Z,93778
2023-01-15T19:09:20.831Z,93788
2023-01-15T19:12:46.159Z,93783
2023-01-15T19:16:11.527Z,93796
2023-01-15T19:19:36.780Z,93806
2023-01-15T19:23:05.089Z,93801
2023-01-15T19:26:27.369Z,93801
2023-01-15T19:29:52.624Z,93810
2023-01-15T19:33:17.937Z,93812
2023-01-15T19:36:43.306Z,93810
2023-01-15T19:40:08.561Z,93805
2023-01-15T19:43:33.886Z,93806
2023-01-15T19:46:59.289Z,93802
2023-01-15T19:50:24.503Z,93816
2023-01-15T19:53:49.813Z,93822
2023-01-15T19:57:15.118Z,93826
2023-01-15T20:00:40.508Z,93808
2023-01-15T20:04:05.694Z,93815
2023-01-15T20:07:31.021Z,93821
2023-01-15T20:10:56.289Z,93823
2023-01-15T20:14:21.577Z,93819
2023-01-15T20:17:46.891Z,93815
2023-01-15T20:21:12.201Z,93817
2023-01-15T20:24:39.157Z,93819
2023-01-15T20:28:04.460Z,93812
2023-01-15T20:31:29.794Z,93807
2023-01-15T20:34:55.059Z,93808
2023-01-15T20:38:20.368Z,93806
2023-01-15T20:41:45.655Z,93802
2023-01-15T20:45:10.900Z,93795
2023-01-15T20:48:36.149Z,93787
2023-01-15T20:52:01.514Z,93802
2023-01-15T20:55:26.756Z,93790
2023-01-15T20:58:52.030Z,93796
2023-01-15T21:02:17.303Z,93787
2023-01-15T21:05:42.554Z,93784
2023-01-15T21:09:07.806Z,93768
2023-01-15T21:12:33.069Z,93776
2023-01-15T21:15:58.303Z,93763
2023-01-15T21:19:23.619Z,93748
2023-01-15T21:22:48.884Z,93749
2023-01-15T21:26:14.152Z,93751
2023-01-15T21:29:39.382Z,93741
2023-01-15T21:33:05.413Z,93748
2023-01-15T21:36:29.925Z,93744
2023-01-15T21:39:55.185Z,93750
2023-01-15T21:43:20.449Z,93745
2023-01-15T21:46:45.679Z,93748
2023-01-15T21:50:10.944Z,93730
2023-01-15T21:53:36.243Z,93737
2023-01-15T21:57:01.534Z,93745
2023-01-15T22:00:26.802Z,93739
2023-01-15T22:03:52.056Z,93739
2023-01-15T22:07:17.336Z,93733
2023-01-15T22:10:42.590Z,93726
2023-01-15T22:14:07.842Z,93737
2023-01-15T22:17:33.117Z,93735
2023-01-15T22:20:58.362Z,93747
2023-01-15T22:24:23.648Z,93736
2023-01-15T22:27:48.877Z,93723
2023-01-15T22:31:14.167Z,93733
2023-01-15T22:34:39.439Z,93731
2023-01-15T22:38:04.731Z,93732
2023-01-15T22:41:30.005Z,93742
2023-01-15T22:44:55.269Z,93734
2023-01-15T22:48:20.548Z,93721
2023-01-15T22:51:45.794Z,93726
2023-01-15T22:55:11.066Z,93729
2023-01-15T22:58:36.346Z,93728
2023-01-15T23:02:01.783Z,93714
2023-01-15T23:05:26.866Z,93718
2023-01-15T23:08:52.141Z,93722
2023-01-15T23:12:17.420Z,93726
2023-01-15T23:15:42.792Z,93724
2023-01-15T23:19:07.939Z,93720
2023-01-15T23:22:33.194Z,93716
2023-01-15T23:25:58.441Z,93719
2023-01-15T23:29:23.714Z,93708
2023-01-15T23:32:49.108Z,93704
2023-01-15T23:36:14.251Z,93698
2023-01-15T23:39:39.531Z,93698
2023-01-15T23:43:04.769Z,93702
2023-01-15T23:46:30.070Z,93687
2023-01-15T23:49:55.386Z,93681
2023-01-15T23:53:20.620Z,93679
2023-01-15T23:56:45.854Z,93673
